Orient, Ohio
Current Conditions -  °F | °C
As of 10:35 PM on Sunday 23 Nov 2014 (Local Time) from KTZR Reporting Station
Light Rain Light Rain  
Wind Chill: 54°   Ceiling: 1000
Heat Index: 54°   Visibility: 10mi
Dew Point: 53°   Wind: 17mph
Humidity: 96%   Direction: 140°SE
Pressure: 29.36"   Gusts: 28mph
Location:  39.8°N, 83.15°W
Report Text: KTZR 240335Z AUTO 14015G24KT 10SM -RA BKN010 BKN014 OVC020 12/12 A2936 RMK AO2 P0002 T01220116
Loading
Personal Weather Stations






























Interactive Weather Map New forecast layout! Learn more

10-Day Weather Forecast

Advertisements
Track Severe Weather on mobile